createdAt,value
2018-09-18T00:02:08.012Z,95821.47
2018-09-18T00:04:35.883Z,95823.23
2018-09-18T00:07:04.130Z,95821.27
2018-09-18T00:09:32.163Z,95820.82
2018-09-18T00:12:00.098Z,95820.77
2018-09-18T00:14:27.952Z,95812.28
2018-09-18T00:16:55.929Z,95807.89
2018-09-18T00:19:23.966Z,95816.14
2018-09-18T00:21:51.905Z,95804.44
2018-09-18T00:24:19.890Z,95814.45
2018-09-18T00:26:47.805Z,95821.22
2018-09-18T00:29:15.768Z,95817.33
2018-09-18T00:31:43.694Z,95811.75
2018-09-18T00:34:12.378Z,95811.32
2018-09-18T00:36:40.315Z,95811.39
2018-09-18T00:39:09.091Z,95807.59
2018-09-18T00:41:37.036Z,95812.50
2018-09-18T00:44:04.998Z,95809.03
2018-09-18T00:46:33.150Z,95811.77
2018-09-18T00:49:01.160Z,95811.50
2018-09-18T00:51:29.133Z,95807.90
2018-09-18T00:53:57.935Z,95815.80
2018-09-18T00:56:25.912Z,95808.92
2018-09-18T00:58:54.427Z,95802.08
2018-09-18T01:01:22.544Z,95792.16
2018-09-18T01:03:50.431Z,95799.52
2018-09-18T01:06:18.455Z,95799.55
2018-09-18T01:08:46.445Z,95795.42
2018-09-18T01:11:14.388Z,95802.59
2018-09-18T01:13:42.438Z,95802.69
2018-09-18T01:16:10.422Z,95802.52
2018-09-18T01:18:41.163Z,95799.80
2018-09-18T01:21:09.746Z,95808.98
2018-09-18T01:23:37.728Z,95811.77
2018-09-18T01:26:05.963Z,95813.12
2018-09-18T01:28:34.564Z,95811.16
2018-09-18T01:31:02.710Z,95803.97
2018-09-18T01:33:30.699Z,95798.98
2018-09-18T01:35:58.682Z,95804.21
2018-09-18T01:38:26.654Z,95807.29
2018-09-18T01:40:54.935Z,95806.09
2018-09-18T01:43:22.867Z,95804.05
2018-09-18T01:45:51.071Z,95803.02
2018-09-18T01:48:19.019Z,95802.33
2018-09-18T01:50:47.095Z,95804.75
2018-09-18T01:53:15.027Z,95791.02
2018-09-18T01:55:42.951Z,95800.31
2018-09-18T01:58:10.938Z,95809.06
2018-09-18T02:00:38.881Z,95794.77
2018-09-18T02:03:06.925Z,95803.80
2018-09-18T02:05:34.929Z,95802.49
2018-09-18T02:08:02.860Z,95810.95
2018-09-18T02:10:30.739Z,95803.53
2018-09-18T02:12:58.987Z,95799.22
2018-09-18T02:15:27.025Z,95800.95
2018-09-18T02:17:54.954Z,95796.80
2018-09-18T02:20:22.926Z,95799.90
2018-09-18T02:22:51.017Z,95803.06
2018-09-18T02:25:18.970Z,95804.54
2018-09-18T02:27:46.884Z,95804.45
2018-09-18T02:30:14.870Z,95805.03
2018-09-18T02:32:42.791Z,95803.05
2018-09-18T02:35:10.678Z,95808.09
2018-09-18T02:37:38.682Z,95805.36
2018-09-18T02:40:07.006Z,95807.21
2018-09-18T02:42:35.056Z,95812.98
2018-09-18T02:45:03.070Z,95803.33
2018-09-18T02:47:31.123Z,95803.47
2018-09-18T02:49:59.001Z,95804.12
2018-09-18T02:52:26.906Z,95804.91
2018-09-18T02:54:55.056Z,95813.22
2018-09-18T02:57:22.979Z,95805.86
2018-09-18T02:59:51.113Z,95809.00
2018-09-18T03:02:19.139Z,95809.69
2018-09-18T03:04:47.124Z,95807.93
2018-09-18T03:07:14.994Z,95804.89
2018-09-18T03:09:42.982Z,95808.22
2018-09-18T03:12:10.924Z,95811.78
2018-09-18T03:14:38.834Z,95807.26
2018-09-18T03:17:06.836Z,95801.64
2018-09-18T03:19:34.832Z,95806.53
2018-09-18T03:22:02.790Z,95808.77
2018-09-18T03:24:30.786Z,95805.17
2018-09-18T03:26:58.806Z,95816.39
2018-09-18T03:29:26.846Z,95816.08
2018-09-18T03:31:54.830Z,95809.58
2018-09-18T03:34:22.766Z,95817.59
2018-09-18T03:36:50.891Z,95819.58
2018-09-18T03:39:18.996Z,95814.89
2018-09-18T03:41:47.000Z,95816.73
2018-09-18T03:44:14.952Z,95814.15
2018-09-18T03:46:42.875Z,95817.33
2018-09-18T03:49:10.777Z,95824.45
2018-09-18T03:51:38.641Z,95825.81
2018-09-18T03:54:06.813Z,95819.62
2018-09-18T03:56:34.776Z,95826.44
2018-09-18T03:59:02.703Z,95826.26
2018-09-18T04:01:30.602Z,95826.11
2018-09-18T04:03:58.706Z,95833.67
2018-09-18T04:06:26.721Z,95834.44
2018-09-18T04:08:54.710Z,95829.59
2018-09-18T04:11:23.683Z,95837.92
2018-09-18T04:13:51.768Z,95834.28
2018-09-18T04:16:20.005Z,95835.35
2018-09-18T04:18:48.034Z,95839.12
2018-09-18T04:21:15.968Z,95836.53
2018-09-18T04:23:44.039Z,95843.34
2018-09-18T04:26:11.983Z,95843.50
2018-09-18T04:28:40.025Z,95845.61
2018-09-18T04:31:08.036Z,95842.42
2018-09-18T04:33:35.897Z,95850.89
2018-09-18T04:36:03.909Z,95859.52
2018-09-18T04:38:31.902Z,95853.92
2018-09-18T04:40:59.952Z,95859.66
2018-09-18T04:43:27.938Z,95874.48
2018-09-18T04:45:55.824Z,95872.41
2018-09-18T04:48:23.932Z,95867.27
2018-09-18T04:50:51.849Z,95869.09
2018-09-18T04:53:19.704Z,95869.98
2018-09-18T04:55:47.666Z,95873.44
2018-09-18T04:58:15.570Z,95873.41
2018-09-18T05:00:43.592Z,95875.39
2018-09-18T05:03:11.973Z,95879.50
2018-09-18T05:05:39.881Z,95886.48
2018-09-18T05:08:07.799Z,95886.63
2018-09-18T05:10:35.777Z,95884.97
2018-09-18T05:13:03.862Z,95886.78
2018-09-18T05:15:31.809Z,95887.69
2018-09-18T05:17:59.677Z,95886.95
2018-09-18T05:20:27.724Z,95888.91
2018-09-18T05:22:57.924Z,95887.25
2018-09-18T05:25:25.904Z,95878.45
2018-09-18T05:27:53.915Z,95889.64
2018-09-18T05:30:21.975Z,95884.78
2018-09-18T05:32:50.003Z,95889.80
2018-09-18T05:35:18.011Z,95892.19
2018-09-18T05:37:46.038Z,95889.49
2018-09-18T05:40:14.262Z,95889.58
2018-09-18T05:42:42.315Z,95883.64
2018-09-18T05:45:10.141Z,95893.94
2018-09-18T05:47:38.082Z,95899.66
2018-09-18T05:50:06.199Z,95903.74
2018-09-18T05:52:34.192Z,95906.75
2018-09-18T05:55:02.183Z,95908.75
2018-09-18T05:57:30.137Z,95910.34
2018-09-18T05:59:58.828Z,95909.42
2018-09-18T06:02:26.926Z,95907.09
2018-09-18T06:04:55.093Z,95910.35
2018-09-18T06:07:23.153Z,95913.98
2018-09-18T06:09:51.430Z,95923.32
2018-09-18T06:12:19.462Z,95911.89
2018-09-18T06:14:47.807Z,95910.95
2018-09-18T06:17:16.205Z,95914.23
2018-09-18T06:19:44.249Z,95914.06
2018-09-18T06:22:12.194Z,95914.12
2018-09-18T06:24:40.208Z,95907.94
2018-09-18T06:27:08.745Z,95918.30
2018-09-18T06:29:37.624Z,95912.55
2018-09-18T06:34:46.928Z,95912.05
2018-09-18T06:37:15.309Z,95910.66
2018-09-18T06:39:45.330Z,95915.58
2018-09-18T06:42:16.908Z,95913.28
2018-09-18T06:45:03.223Z,95917.16
2018-09-18T06:47:31.858Z,95905.45
2018-09-18T06:50:03.524Z,95906.69
2018-09-18T06:52:37.690Z,95896.05
2018-09-18T06:55:13.823Z,95901.03
2018-09-18T06:57:42.117Z,95896.93
2018-09-18T07:00:11.609Z,95898.55
2018-09-18T07:02:41.886Z,95902.38
2018-09-18T07:05:09.977Z,95893.09
2018-09-18T07:07:37.955Z,95896.05
2018-09-18T07:10:07.685Z,95902.33
2018-09-18T07:13:00.697Z,95898.46
2018-09-18T07:15:28.978Z,95899.02
2018-09-18T07:17:57.030Z,95903.97
2018-09-18T07:20:25.144Z,95910.20
2018-09-18T07:22:53.119Z,95901.94
2018-09-18T07:25:21.283Z,95905.52
2018-09-18T07:27:49.378Z,95902.56
2018-09-18T07:30:17.368Z,95906.91
2018-09-18T07:32:45.275Z,95903.99
2018-09-18T07:35:13.424Z,95901.38
2018-09-18T07:37:41.347Z,95900.08
2018-09-18T07:40:09.408Z,95908.92
2018-09-18T07:42:37.412Z,95902.00
2018-09-18T07:45:05.439Z,95912.17
2018-09-18T07:47:33.375Z,95908.84
2018-09-18T07:50:01.433Z,95904.42
2018-09-18T07:52:29.522Z,95896.89
2018-09-18T07:54:57.631Z,95893.25
2018-09-18T07:57:25.807Z,95908.90
2018-09-18T07:59:54.108Z,95849.78
2018-09-18T08:02:22.075Z,95892.95
2018-09-18T08:04:50.848Z,95885.63
2018-09-18T08:07:18.865Z,95888.09
2018-09-18T08:09:46.940Z,95888.84
2018-09-18T08:12:14.903Z,95883.38
2018-09-18T08:14:43.042Z,95883.53
2018-09-18T08:17:11.316Z,95880.48
2018-09-18T08:19:39.640Z,95888.30
2018-09-18T08:22:13.288Z,95877.39
2018-09-18T08:24:41.486Z,95877.87
2018-09-18T08:27:09.431Z,95887.04
2018-09-18T08:29:37.371Z,95876.27
2018-09-18T08:32:05.464Z,95873.91
2018-09-18T08:34:33.675Z,95875.24
2018-09-18T08:37:01.658Z,95872.86
2018-09-18T08:39:29.551Z,95873.27
2018-09-18T08:41:57.615Z,95878.66
2018-09-18T08:44:26.418Z,95866.61
2018-09-18T08:46:54.748Z,95862.95
2018-09-18T08:49:22.892Z,95861.63
2018-09-18T08:51:51.025Z,95860.73
2018-09-18T08:54:19.012Z,95857.37
2018-09-18T08:56:46.914Z,95854.97
2018-09-18T08:59:15.041Z,95864.42
2018-09-18T09:02:02.714Z,95852.05
2018-09-18T09:04:30.756Z,95859.08
2018-09-18T09:07:02.461Z,95850.80
2018-09-18T09:09:30.450Z,95856.39
2018-09-18T09:11:58.704Z,95847.72
2018-09-18T09:14:28.190Z,95859.04
2018-09-18T09:16:56.130Z,95844.53
2018-09-18T09:19:43.855Z,95843.02
2018-09-18T09:22:21.902Z,95845.45
2018-09-18T09:24:51.875Z,95847.39
2018-09-18T09:27:20.791Z,95855.42
2018-09-18T09:29:50.083Z,95845.27
2018-09-18T09:32:18.095Z,95838.63
2018-09-18T09:34:46.014Z,95834.89
2018-09-18T09:37:14.084Z,95832.30
2018-09-18T09:39:42.149Z,95828.72
2018-09-18T09:42:10.194Z,95825.66
2018-09-18T09:44:38.229Z,95823.83
2018-09-18T09:47:06.445Z,95816.80
2018-09-18T09:49:34.429Z,95812.79
2018-09-18T09:52:03.213Z,95815.23
2018-09-18T09:54:31.235Z,95806.55
2018-09-18T09:56:59.656Z,95805.08
2018-09-18T09:59:28.758Z,95804.18
2018-09-18T10:02:04.863Z,95804.97
2018-09-18T10:04:33.076Z,95799.56
2018-09-18T10:07:02.024Z,95794.81
2018-09-18T10:09:30.402Z,95796.45
2018-09-18T10:11:59.639Z,95790.69
2018-09-18T10:14:28.181Z,95788.70
2018-09-18T10:16:56.218Z,95786.06
2018-09-18T10:19:24.342Z,95796.11
2018-09-18T10:21:52.652Z,95789.59
2018-09-18T10:24:20.817Z,95789.42
2018-09-18T10:26:49.078Z,95788.76
2018-09-18T10:29:17.674Z,95782.67
2018-09-18T10:31:47.135Z,95781.37
2018-09-18T10:34:16.193Z,95780.48
2018-09-18T10:36:45.707Z,95780.47
2018-09-18T10:39:14.717Z,95763.27
2018-09-18T10:41:42.723Z,95766.54
2018-09-18T10:44:11.279Z,95766.77
2018-09-18T10:46:39.351Z,95759.62
2018-09-18T10:49:07.374Z,95761.67
2018-09-18T10:51:37.544Z,95757.50
2018-09-18T10:54:05.619Z,95751.84
2018-09-18T10:56:33.576Z,95745.96
2018-09-18T10:59:01.518Z,95750.25
2018-09-18T11:01:30.406Z,95745.42
2018-09-18T11:03:58.638Z,95742.59
2018-09-18T11:06:26.616Z,95742.02
2018-09-18T11:08:56.591Z,95732.89
2018-09-18T11:11:24.692Z,95732.55
2018-09-18T11:13:52.904Z,95724.23
2018-09-18T11:16:21.105Z,95724.13
2018-09-18T11:18:49.280Z,95715.64
2018-09-18T11:21:17.338Z,95724.66
2018-09-18T11:23:45.641Z,95724.53
2018-09-18T11:26:13.795Z,95723.25
2018-09-18T11:28:41.712Z,95721.58
2018-09-18T11:31:09.890Z,95725.03
2018-09-18T11:33:37.886Z,95710.89
2018-09-18T11:36:06.002Z,95703.20
2018-09-18T11:38:35.004Z,95704.36
2018-09-18T11:41:02.974Z,95699.27
2018-09-18T11:43:31.049Z,95702.63
2018-09-18T11:45:59.269Z,95696.50
2018-09-18T11:48:27.522Z,95686.03
2018-09-18T11:50:55.671Z,95685.34
2018-09-18T11:53:23.899Z,95687.58
2018-09-18T11:55:51.833Z,95678.41
2018-09-18T11:58:19.856Z,95683.91
2018-09-18T12:00:48.059Z,95677.01
2018-09-18T12:03:16.064Z,95683.14
2018-09-18T12:05:44.990Z,95679.73
2018-09-18T12:08:13.078Z,95678.52
2018-09-18T12:10:41.261Z,95676.62
2018-09-18T12:13:09.356Z,95683.45
2018-09-18T12:15:38.207Z,95678.36
2018-09-18T12:18:06.815Z,95676.84
2018-09-18T12:20:35.097Z,95673.84
2018-09-18T12:23:03.070Z,95673.84
2018-09-18T12:25:31.467Z,95669.59
2018-09-18T12:28:00.379Z,95657.06
2018-09-18T12:30:31.455Z,95652.78
2018-09-18T12:33:00.525Z,95661.64
2018-09-18T12:35:28.980Z,95658.55
2018-09-18T12:37:57.409Z,95656.07
2018-09-18T12:40:27.680Z,95652.53
2018-09-18T12:42:57.176Z,95652.49
2018-09-18T12:45:27.463Z,95650.86
2018-09-18T12:47:56.130Z,95638.81
2018-09-18T12:50:24.297Z,95640.03
2018-09-18T12:52:52.995Z,95642.09
2018-09-18T12:55:21.503Z,95636.06
2018-09-18T12:57:49.559Z,95628.63
2018-09-18T13:00:17.676Z,95625.99
2018-09-18T13:02:46.504Z,95624.45
2018-09-18T13:05:14.475Z,95624.92
2018-09-18T13:07:42.552Z,95623.02
2018-09-18T13:10:10.527Z,95622.89
2018-09-18T13:12:38.609Z,95622.44
2018-09-18T13:15:06.688Z,95618.88
2018-09-18T13:17:35.538Z,95618.47
2018-09-18T13:20:03.995Z,95614.09
2018-09-18T13:22:31.860Z,95605.39
2018-09-18T13:24:59.952Z,95608.05
2018-09-18T13:27:28.103Z,95594.57
2018-09-18T13:29:56.251Z,95599.05
2018-09-18T13:32:24.249Z,95593.88
2018-09-18T13:34:52.490Z,95592.40
2018-09-18T13:37:20.538Z,95601.17
2018-09-18T13:39:49.131Z,95594.64
2018-09-18T13:42:17.126Z,95591.62
2018-09-18T13:44:45.146Z,95581.48
2018-09-18T13:47:13.202Z,95593.01
2018-09-18T13:49:41.370Z,95585.45
2018-09-18T13:52:10.487Z,95591.72
2018-09-18T13:54:39.005Z,95584.03
2018-09-18T13:57:08.672Z,95591.97
2018-09-18T13:59:36.915Z,95588.49
2018-09-18T14:02:05.239Z,95591.81
2018-09-18T14:04:33.533Z,95597.56
2018-09-18T14:07:01.626Z,95594.08
2018-09-18T14:09:29.710Z,95590.40
2018-09-18T14:11:57.752Z,95593.38
2018-09-18T14:14:25.887Z,95591.77
2018-09-18T14:16:53.930Z,95588.61
2018-09-18T14:19:22.114Z,95581.48
2018-09-18T14:21:52.103Z,95576.66
2018-09-18T14:24:20.079Z,95588.23
2018-09-18T14:26:48.312Z,95584.48
2018-09-18T14:29:16.413Z,95589.80
2018-09-18T14:31:44.435Z,95589.17
2018-09-18T14:34:12.438Z,95584.33
2018-09-18T14:36:41.268Z,95594.55
2018-09-18T14:39:10.230Z,95593.97
2018-09-18T14:41:38.752Z,95583.84
2018-09-18T14:44:06.868Z,95587.89
2018-09-18T14:46:35.018Z,95590.72
2018-09-18T14:49:03.556Z,95593.79
2018-09-18T14:51:31.495Z,95599.23
2018-09-18T14:53:59.474Z,95599.96
2018-09-18T14:56:27.502Z,95605.31
2018-09-18T14:58:56.488Z,95600.59
2018-09-18T15:01:24.615Z,95603.70
2018-09-18T15:03:52.674Z,95609.86
2018-09-18T15:06:20.844Z,95607.73
2018-09-18T15:08:48.863Z,95606.14
2018-09-18T15:11:16.818Z,95610.41
2018-09-18T15:13:44.766Z,95609.76
2018-09-18T15:16:15.839Z,95601.36
2018-09-18T15:18:43.796Z,95607.64
2018-09-18T15:21:11.791Z,95609.13
2018-09-18T15:23:39.652Z,95610.95
2018-09-18T15:26:07.837Z,95607.09
2018-09-18T15:28:35.851Z,95609.43
2018-09-18T15:31:03.979Z,95617.61
2018-09-18T15:33:32.224Z,95616.30
2018-09-18T15:36:00.218Z,95615.34
2018-09-18T15:38:28.152Z,95619.59
2018-09-18T15:40:56.065Z,95613.86
2018-09-18T15:43:24.101Z,95621.93
2018-09-18T15:45:52.089Z,95622.06
2018-09-18T15:48:20.110Z,95626.75
2018-09-18T15:50:48.465Z,95621.17
2018-09-18T15:53:17.335Z,95620.20
2018-09-18T15:55:45.360Z,95623.31
2018-09-18T15:58:13.381Z,95617.95
2018-09-18T16:00:41.554Z,95631.61
2018-09-18T16:03:09.621Z,95626.02
2018-09-18T16:05:48.617Z,95628.47
2018-09-18T16:08:16.635Z,95632.96
2018-09-18T16:10:53.548Z,95557.84
2018-09-18T16:13:22.521Z,95632.55
2018-09-18T16:15:50.634Z,95639.16
2018-09-18T16:18:18.671Z,95633.30
2018-09-18T16:20:46.670Z,95628.98
2018-09-18T16:23:14.802Z,95635.11
2018-09-18T16:25:42.840Z,95632.17
2018-09-18T16:28:11.077Z,95635.63
2018-09-18T16:30:39.133Z,95642.59
2018-09-18T16:35:52.450Z,95637.52
2018-09-18T16:38:20.497Z,95647.43
2018-09-18T16:40:48.557Z,95648.34
2018-09-18T16:43:16.477Z,95652.77
2018-09-18T16:45:44.476Z,95650.41
2018-09-18T16:48:12.486Z,95654.69
2018-09-18T16:50:40.498Z,95664.36
2018-09-18T16:53:08.505Z,95660.78
2018-09-18T16:55:36.491Z,95663.59
2018-09-18T16:58:04.579Z,95667.52
2018-09-18T17:00:32.733Z,95661.88
2018-09-18T17:03:01.451Z,95662.03
2018-09-18T17:05:30.595Z,95670.33
2018-09-18T17:07:59.294Z,95669.97
2018-09-18T17:10:27.316Z,95663.95
2018-09-18T17:12:55.514Z,95671.94
2018-09-18T17:15:23.525Z,95668.60
2018-09-18T17:17:51.512Z,95666.73
2018-09-18T17:20:19.492Z,95665.91
2018-09-18T17:22:47.481Z,95669.48
2018-09-18T17:25:16.099Z,95681.20
2018-09-18T17:27:44.123Z,95684.54
2018-09-18T17:30:12.236Z,95677.47
2018-09-18T17:32:40.295Z,95682.98
2018-09-18T17:35:09.208Z,95682.01
2018-09-18T17:37:39.968Z,95689.64
2018-09-18T17:40:08.216Z,95697.14
2018-09-18T17:42:36.224Z,95693.93
2018-09-18T17:45:05.346Z,95693.81
2018-09-18T17:47:34.274Z,95691.90
2018-09-18T17:50:02.292Z,95704.61
2018-09-18T17:52:30.335Z,95704.50
2018-09-18T17:54:59.034Z,95704.79
2018-09-18T17:57:26.985Z,95715.96
2018-09-18T17:59:56.169Z,95712.66
2018-09-18T18:02:24.183Z,95713.55
2018-09-18T18:04:52.457Z,95715.28
2018-09-18T18:07:20.484Z,95721.23
2018-09-18T18:09:48.708Z,95723.89
2018-09-18T18:12:16.730Z,95719.55
2018-09-18T18:14:44.761Z,95727.69
2018-09-18T18:17:12.782Z,95729.83
2018-09-18T18:19:40.885Z,95721.19
2018-09-18T18:22:08.906Z,95728.18
2018-09-18T18:24:36.925Z,95725.66
2018-09-18T18:27:04.972Z,95730.36
2018-09-18T18:29:38.330Z,95730.12
2018-09-18T18:32:06.415Z,95737.69
2018-09-18T18:34:34.438Z,95740.55
2018-09-18T18:37:02.699Z,95740.04
2018-09-18T18:39:31.763Z,95736.92
2018-09-18T18:41:59.844Z,95738.23
2018-09-18T18:44:27.815Z,95734.66
2018-09-18T18:46:55.755Z,95734.23
2018-09-18T18:49:24.668Z,95737.30
2018-09-18T18:51:53.073Z,95731.66
2018-09-18T18:54:21.043Z,95740.56
2018-09-18T18:56:49.042Z,95744.31
2018-09-18T18:59:16.965Z,95739.92
2018-09-18T19:01:45.048Z,95744.42
2018-09-18T19:04:13.109Z,95742.66
2018-09-18T19:06:41.220Z,95739.38
2018-09-18T19:09:09.328Z,95743.50
2018-09-18T19:11:37.336Z,95746.34
2018-09-18T19:14:05.486Z,95749.90
2018-09-18T19:16:33.567Z,95746.58
2018-09-18T19:19:01.549Z,95743.91
2018-09-18T19:21:29.576Z,95749.59
2018-09-18T19:23:57.466Z,95744.81
2018-09-18T19:26:25.594Z,95747.80
2018-09-18T19:28:53.754Z,95746.14
2018-09-18T19:31:21.753Z,95744.60
2018-09-18T19:33:49.705Z,95755.67
2018-09-18T19:36:17.735Z,95749.72
2018-09-18T19:38:45.707Z,95751.35
2018-09-18T19:41:13.755Z,95745.73
2018-09-18T19:43:41.704Z,95751.39
2018-09-18T19:46:09.721Z,95749.45
2018-09-18T19:48:37.798Z,95751.72
2018-09-18T19:51:05.911Z,95752.48
2018-09-18T19:53:33.863Z,95750.30
2018-09-18T19:56:01.838Z,95749.30
2018-09-18T19:58:29.743Z,95741.42
2018-09-18T20:00:57.746Z,95750.63
2018-09-18T20:03:25.918Z,95753.37
2018-09-18T20:05:53.972Z,95747.23
2018-09-18T20:08:21.962Z,95754.61
2018-09-18T20:10:50.082Z,95751.62
2018-09-18T20:13:18.039Z,95759.49
2018-09-18T20:15:46.150Z,95759.08
2018-09-18T20:18:14.067Z,95764.56
2018-09-18T20:20:42.022Z,95772.06
2018-09-18T20:23:09.950Z,95775.23
2018-09-18T20:25:37.918Z,95775.31
2018-09-18T20:28:05.893Z,95775.77
2018-09-18T20:30:33.956Z,95783.11
2018-09-18T20:33:01.905Z,95776.77
2018-09-18T20:35:29.901Z,95775.27
2018-09-18T20:37:57.861Z,95780.63
2018-09-18T20:40:26.009Z,95785.09
2018-09-18T20:42:53.923Z,95785.37
2018-09-18T20:45:21.898Z,95788.38
2018-09-18T20:47:49.756Z,95784.33
2018-09-18T20:50:21.877Z,95784.95
2018-09-18T20:52:50.867Z,95779.41
2018-09-18T20:55:18.902Z,95787.05
2018-09-18T20:57:46.938Z,95786.64
2018-09-18T21:00:14.821Z,95786.64
2018-09-18T21:02:42.706Z,95791.11
2018-09-18T21:05:10.826Z,95786.39
2018-09-18T21:07:38.832Z,95798.20
2018-09-18T21:10:06.900Z,95790.18
2018-09-18T21:12:34.793Z,95799.01
2018-09-18T21:15:03.033Z,95796.34
2018-09-18T21:17:32.981Z,95803.60
2018-09-18T21:20:00.999Z,95793.18
2018-09-18T21:22:29.007Z,95803.49
2018-09-18T21:25:17.433Z,95806.82
2018-09-18T21:27:46.553Z,95808.60
2018-09-18T21:30:15.496Z,95802.25
2018-09-18T21:32:44.304Z,95797.77
2018-09-18T21:35:12.414Z,95792.53
2018-09-18T21:37:40.750Z,95798.08
2018-09-18T21:40:08.776Z,95793.33
2018-09-18T21:42:36.737Z,95805.64
2018-09-18T21:45:04.770Z,95797.40
2018-09-18T21:47:32.703Z,95793.39
2018-09-18T21:50:00.642Z,95797.50
2018-09-18T21:52:28.713Z,95799.04
2018-09-18T21:54:56.858Z,95787.11
2018-09-18T21:57:24.939Z,95798.23
2018-09-18T21:59:53.071Z,95795.48
2018-09-18T22:02:20.962Z,95799.38
2018-09-18T22:04:49.299Z,95798.77
2018-09-18T22:07:17.274Z,95803.05
2018-09-18T22:09:45.154Z,95801.13
2018-09-18T22:12:13.106Z,95802.19
2018-09-18T22:14:41.079Z,95792.66
2018-09-18T22:17:09.198Z,95794.03
2018-09-18T22:19:37.326Z,95793.05
2018-09-18T22:22:05.382Z,95792.64
2018-09-18T22:24:33.437Z,95793.91
2018-09-18T22:27:01.956Z,95807.64
2018-09-18T22:29:29.994Z,95804.55
2018-09-18T22:31:57.926Z,95799.53
2018-09-18T22:34:25.918Z,95804.13
2018-09-18T22:36:54.872Z,95797.70
2018-09-18T22:39:23.050Z,95799.09
2018-09-18T22:41:51.046Z,95794.23
2018-09-18T22:44:18.993Z,95792.88
2018-09-18T22:46:47.029Z,95796.13
2018-09-18T22:49:14.930Z,95795.36
2018-09-18T22:51:42.868Z,95794.78
2018-09-18T22:54:10.829Z,95795.49
2018-09-18T22:56:38.794Z,95802.63
2018-09-18T22:59:06.800Z,95802.47
2018-09-18T23:01:34.746Z,95803.88
2018-09-18T23:04:02.671Z,95818.73
2018-09-18T23:06:30.780Z,95812.16
2018-09-18T23:08:58.713Z,95804.55
2018-09-18T23:11:26.779Z,95810.39
2018-09-18T23:13:54.778Z,95810.81
2018-09-18T23:16:22.676Z,95807.86
2018-09-18T23:18:50.732Z,95806.26
2018-09-18T23:21:18.604Z,95805.58
2018-09-18T23:23:46.557Z,95812.15
2018-09-18T23:26:14.594Z,95818.88
2018-09-18T23:28:42.475Z,95811.38
2018-09-18T23:31:10.435Z,95812.73
2018-09-18T23:33:38.491Z,95816.63
2018-09-18T23:36:06.385Z,95811.50
2018-09-18T23:38:34.331Z,95825.08
2018-09-18T23:41:02.274Z,95821.88
2018-09-18T23:43:30.244Z,95821.95
2018-09-18T23:45:58.918Z,95827.76
2018-09-18T23:48:26.825Z,95828.47
2018-09-18T23:50:55.762Z,95826.74
2018-09-18T23:53:24.531Z,95823.90
2018-09-18T23:55:52.447Z,95822.58
2018-09-18T23:58:20.324Z,95818.83
